sensor_id;sensor_type;location;lat;lon;timestamp;temperature;humidity
23717;DHT22;22094;52.130;5.598;2024-03-22T00:01:47;10.90;1.00
23717;DHT22;22094;52.130;5.598;2024-03-22T00:04:14;11.00;1.00
23717;DHT22;22094;52.130;5.598;2024-03-22T00:06:41;11.00;1.00
23717;DHT22;22094;52.130;5.598;2024-03-22T00:09:07;11.00;1.00
23717;DHT22;22094;52.130;5.598;2024-03-22T00:11:32;11.00;1.00
23717;DHT22;22094;52.130;5.598;2024-03-22T00:13:58;11.00;60.00
23717;DHT22;22094;52.130;5.598;2024-03-22T00:16:24;11.10;95.50
23717;DHT22;22094;52.130;5.598;2024-03-22T00:18:50;11.10;99.90
23717;DHT22;22094;52.130;5.598;2024-03-22T00:21:15;11.10;99.90
23717;DHT22;22094;52.130;5.598;2024-03-22T00:23:41;11.10;99.90
23717;DHT22;22094;52.130;5.598;2024-03-22T00:26:07;11.10;99.90
23717;DHT22;22094;52.130;5.598;2024-03-22T00:28:33;11.10;1.00
23717;DHT22;22094;52.130;5.598;2024-03-22T00:30:58;11.00;1.00
23717;DHT22;22094;52.130;5.598;2024-03-22T00:33:24;11.00;1.00
23717;DHT22;22094;52.130;5.598;2024-03-22T00:35:50;11.00;1.00
23717;DHT22;22094;52.130;5.598;2024-03-22T00:38:16;11.00;1.00
23717;DHT22;22094;52.130;5.598;2024-03-22T00:40:42;11.00;24.10
23717;DHT22;22094;52.130;5.598;2024-03-22T00:43:07;11.00;99.90
23717;DHT22;22094;52.130;5.598;2024-03-22T00:45:33;11.00;99.90
23717;DHT22;22094;52.130;5.598;2024-03-22T00:47:58;11.00;99.90
23717;DHT22;22094;52.130;5.598;2024-03-22T00:50:24;11.00;1.00
23717;DHT22;22094;52.130;5.598;2024-03-22T00:52:52;10.90;1.00
23717;DHT22;22094;52.130;5.598;2024-03-22T00:55:20;10.90;1.00
23717;DHT22;22094;52.130;5.598;2024-03-22T00:57:45;10.90;1.00
23717;DHT22;22094;52.130;5.598;2024-03-22T01:00:11;10.80;1.00
23717;DHT22;22094;52.130;5.598;2024-03-22T01:02:37;10.90;1.00
23717;DHT22;22094;52.130;5.598;2024-03-22T01:05:02;10.90;1.00
23717;DHT22;22094;52.130;5.598;2024-03-22T01:07:28;10.90;1.00
23717;DHT22;22094;52.130;5.598;2024-03-22T01:09:53;10.90;1.00
23717;DHT22;22094;52.130;5.598;2024-03-22T01:12:19;10.90;1.00
23717;DHT22;22094;52.130;5.598;2024-03-22T01:14:44;11.00;1.00
23717;DHT22;22094;52.130;5.598;2024-03-22T01:17:10;11.00;1.00
23717;DHT22;22094;52.130;5.598;2024-03-22T01:19:35;11.00;1.00
23717;DHT22;22094;52.130;5.598;2024-03-22T01:22:01;11.00;1.00
23717;DHT22;22094;52.130;5.598;2024-03-22T01:24:26;11.00;1.00
23717;DHT22;22094;52.130;5.598;2024-03-22T01:26:52;11.00;1.00
23717;DHT22;22094;52.130;5.598;2024-03-22T01:29:18;11.00;1.00
23717;DHT22;22094;52.130;5.598;2024-03-22T01:31:43;11.00;1.00
23717;DHT22;22094;52.130;5.598;2024-03-22T01:34:09;11.00;1.00
23717;DHT22;22094;52.130;5.598;2024-03-22T01:36:34;11.00;1.00
23717;DHT22;22094;52.130;5.598;2024-03-22T01:39:00;11.00;1.00
23717;DHT22;22094;52.130;5.598;2024-03-22T01:41:25;11.00;1.00
23717;DHT22;22094;52.130;5.598;2024-03-22T01:43:52;11.00;1.00
23717;DHT22;22094;52.130;5.598;2024-03-22T01:46:18;11.00;1.00
23717;DHT22;22094;52.130;5.598;2024-03-22T01:48:43;11.00;1.00
23717;DHT22;22094;52.130;5.598;2024-03-22T01:51:09;11.00;1.00
23717;DHT22;22094;52.130;5.598;2024-03-22T01:53:36;11.10;1.00
23717;DHT22;22094;52.130;5.598;2024-03-22T01:56:02;11.10;1.00
23717;DHT22;22094;52.130;5.598;2024-03-22T01:58:28;11.10;1.00
23717;DHT22;22094;52.130;5.598;2024-03-22T02:00:54;11.10;1.00
23717;DHT22;22094;52.130;5.598;2024-03-22T02:03:19;11.10;1.00
23717;DHT22;22094;52.130;5.598;2024-03-22T02:05:45;11.10;1.00
23717;DHT22;22094;52.130;5.598;2024-03-22T02:08:11;11.10;1.00
23717;DHT22;22094;52.130;5.598;2024-03-22T02:10:36;11.10;1.00
23717;DHT22;22094;52.130;5.598;2024-03-22T02:13:02;11.00;1.00
23717;DHT22;22094;52.130;5.598;2024-03-22T02:15:27;11.10;1.00
23717;DHT22;22094;52.130;5.598;2024-03-22T02:17:53;11.10;1.00
23717;DHT22;22094;52.130;5.598;2024-03-22T02:20:18;11.00;1.00
23717;DHT22;22094;52.130;5.598;2024-03-22T02:22:44;11.20;1.00
23717;DHT22;22094;52.130;5.598;2024-03-22T02:25:10;11.00;1.00
23717;DHT22;22094;52.130;5.598;2024-03-22T02:27:36;11.10;1.00
23717;DHT22;22094;52.130;5.598;2024-03-22T02:30:02;11.00;1.00
23717;DHT22;22094;52.130;5.598;2024-03-22T02:32:28;11.10;1.00
23717;DHT22;22094;52.130;5.598;2024-03-22T02:34:53;11.10;1.00
23717;DHT22;22094;52.130;5.598;2024-03-22T02:37:19;11.10;1.00
23717;DHT22;22094;52.130;5.598;2024-03-22T02:39:44;11.30;1.00
23717;DHT22;22094;52.130;5.598;2024-03-22T02:42:10;11.10;1.00
23717;DHT22;22094;52.130;5.598;2024-03-22T02:44:35;11.10;1.00
23717;DHT22;22094;52.130;5.598;2024-03-22T02:47:04;11.10;1.00
23717;DHT22;22094;52.130;5.598;2024-03-22T02:49:29;11.20;1.00
23717;DHT22;22094;52.130;5.598;2024-03-22T02:51:55;11.20;1.00
23717;DHT22;22094;52.130;5.598;2024-03-22T02:54:20;11.20;1.00
23717;DHT22;22094;52.130;5.598;2024-03-22T02:56:46;11.30;1.00
23717;DHT22;22094;52.130;5.598;2024-03-22T02:59:11;11.10;1.00
23717;DHT22;22094;52.130;5.598;2024-03-22T03:01:37;11.10;1.00
23717;DHT22;22094;52.130;5.598;2024-03-22T03:04:02;11.20;1.00
23717;DHT22;22094;52.130;5.598;2024-03-22T03:06:28;11.30;1.00
23717;DHT22;22094;52.130;5.598;2024-03-22T03:08:53;11.10;1.00
23717;DHT22;22094;52.130;5.598;2024-03-22T03:11:19;11.10;1.00
23717;DHT22;22094;52.130;5.598;2024-03-22T03:13:45;11.20;99.90
23717;DHT22;22094;52.130;5.598;2024-03-22T03:16:10;11.10;99.90
23717;DHT22;22094;52.130;5.598;2024-03-22T03:18:36;11.10;99.90
23717;DHT22;22094;52.130;5.598;2024-03-22T03:21:01;11.10;1.00
23717;DHT22;22094;52.130;5.598;2024-03-22T03:23:27;11.10;1.00
23717;DHT22;22094;52.130;5.598;2024-03-22T03:25:52;11.10;1.00
23717;DHT22;22094;52.130;5.598;2024-03-22T03:28:18;11.00;1.00
23717;DHT22;22094;52.130;5.598;2024-03-22T03:30:44;11.00;1.00
23717;DHT22;22094;52.130;5.598;2024-03-22T03:33:10;11.00;1.00
23717;DHT22;22094;52.130;5.598;2024-03-22T03:35:35;10.90;1.00
23717;DHT22;22094;52.130;5.598;2024-03-22T03:38:01;10.90;1.00
23717;DHT22;22094;52.130;5.598;2024-03-22T03:40:26;11.00;1.00
23717;DHT22;22094;52.130;5.598;2024-03-22T03:42:53;10.80;1.00
23717;DHT22;22094;52.130;5.598;2024-03-22T03:45:19;10.80;1.00
23717;DHT22;22094;52.130;5.598;2024-03-22T03:47:44;10.80;1.00
23717;DHT22;22094;52.130;5.598;2024-03-22T03:50:10;10.80;1.00
23717;DHT22;22094;52.130;5.598;2024-03-22T03:52:35;10.80;1.00
23717;DHT22;22094;52.130;5.598;2024-03-22T03:55:01;10.70;49.20
23717;DHT22;22094;52.130;5.598;2024-03-22T03:57:27;10.70;53.80
23717;DHT22;22094;52.130;5.598;2024-03-22T03:59:52;10.70;99.90
23717;DHT22;22094;52.130;5.598;2024-03-22T04:02:18;10.70;99.90
23717;DHT22;22094;52.130;5.598;2024-03-22T04:04:43;10.70;99.90
23717;DHT22;22094;52.130;5.598;2024-03-22T04:07:09;10.60;99.90
23717;DHT22;22094;52.130;5.598;2024-03-22T04:09:34;10.50;99.90
23717;DHT22;22094;52.130;5.598;2024-03-22T04:12:00;10.50;99.90
23717;DHT22;22094;52.130;5.598;2024-03-22T04:14:26;10.60;99.90
23717;DHT22;22094;52.130;5.598;2024-03-22T04:17:04;10.50;99.90
23717;DHT22;22094;52.130;5.598;2024-03-22T04:19:38;10.70;13.00
23717;DHT22;22094;52.130;5.598;2024-03-22T04:22:04;10.50;99.60
23717;DHT22;22094;52.130;5.598;2024-03-22T04:24:29;10.50;99.90
23717;DHT22;22094;52.130;5.598;2024-03-22T04:26:55;10.40;99.90
23717;DHT22;22094;52.130;5.598;2024-03-22T04:29:20;10.50;99.90
23717;DHT22;22094;52.130;5.598;2024-03-22T04:31:46;10.40;99.90
23717;DHT22;22094;52.130;5.598;2024-03-22T04:34:11;10.80;99.90
23717;DHT22;22094;52.130;5.598;2024-03-22T04:36:37;10.50;98.00
23717;DHT22;22094;52.130;5.598;2024-03-22T04:39:02;10.60;1.00
23717;DHT22;22094;52.130;5.598;2024-03-22T04:41:29;10.50;1.00
23717;DHT22;22094;52.130;5.598;2024-03-22T04:43:54;10.50;1.00
23717;DHT22;22094;52.130;5.598;2024-03-22T04:46:20;10.50;1.00
23717;DHT22;22094;52.130;5.598;2024-03-22T04:48:45;10.80;1.00
23717;DHT22;22094;52.130;5.598;2024-03-22T04:51:11;10.40;1.00
23717;DHT22;22094;52.130;5.598;2024-03-22T04:53:36;10.50;1.00
23717;DHT22;22094;52.130;5.598;2024-03-22T04:56:03;10.40;1.00
23717;DHT22;22094;52.130;5.598;2024-03-22T04:58:29;10.40;1.00
23717;DHT22;22094;52.130;5.598;2024-03-22T05:00:58;10.40;1.00
23717;DHT22;22094;52.130;5.598;2024-03-22T05:03:24;10.40;1.00
23717;DHT22;22094;52.130;5.598;2024-03-22T05:05:50;10.30;1.00
23717;DHT22;22094;52.130;5.598;2024-03-22T05:08:16;10.30;1.00
23717;DHT22;22094;52.130;5.598;2024-03-22T05:10:41;10.30;1.00
23717;DHT22;22094;52.130;5.598;2024-03-22T05:13:07;10.40;1.00
23717;DHT22;22094;52.130;5.598;2024-03-22T05:15:33;10.30;1.00
23717;DHT22;22094;52.130;5.598;2024-03-22T05:17:59;10.40;33.40
23717;DHT22;22094;52.130;5.598;2024-03-22T05:20:25;10.30;23.20
23717;DHT22;22094;52.130;5.598;2024-03-22T05:22:51;10.40;1.00
23717;DHT22;22094;52.130;5.598;2024-03-22T05:25:17;10.40;1.00
23717;DHT22;22094;52.130;5.598;2024-03-22T05:27:45;10.40;1.00
23717;DHT22;22094;52.130;5.598;2024-03-22T05:30:11;10.40;1.00
23717;DHT22;22094;52.130;5.598;2024-03-22T05:32:39;10.40;1.00
23717;DHT22;22094;52.130;5.598;2024-03-22T05:35:05;10.40;1.00
23717;DHT22;22094;52.130;5.598;2024-03-22T05:37:32;10.40;1.00
23717;DHT22;22094;52.130;5.598;2024-03-22T05:39:58;10.40;1.00
23717;DHT22;22094;52.130;5.598;2024-03-22T05:42:24;10.40;1.00
23717;DHT22;22094;52.130;5.598;2024-03-22T05:44:50;10.40;1.00
23717;DHT22;22094;52.130;5.598;2024-03-22T05:47:15;10.30;1.00
23717;DHT22;22094;52.130;5.598;2024-03-22T05:49:41;10.40;1.00
23717;DHT22;22094;52.130;5.598;2024-03-22T05:52:06;10.40;1.00
23717;DHT22;22094;52.130;5.598;2024-03-22T05:54:32;10.40;1.00
23717;DHT22;22094;52.130;5.598;2024-03-22T05:56:57;10.40;1.00
23717;DHT22;22094;52.130;5.598;2024-03-22T05:59:23;10.30;1.00
23717;DHT22;22094;52.130;5.598;2024-03-22T06:01:48;10.30;1.00
23717;DHT22;22094;52.130;5.598;2024-03-22T06:04:14;10.30;1.00
23717;DHT22;22094;52.130;5.598;2024-03-22T06:06:39;10.30;1.00
23717;DHT22;22094;52.130;5.598;2024-03-22T06:09:05;10.30;1.00
23717;DHT22;22094;52.130;5.598;2024-03-22T06:11:36;10.40;99.90
23717;DHT22;22094;52.130;5.598;2024-03-22T06:14:02;10.30;99.90
23717;DHT22;22094;52.130;5.598;2024-03-22T06:16:28;10.40;99.90
23717;DHT22;22094;52.130;5.598;2024-03-22T06:18:53;10.40;99.90
23717;DHT22;22094;52.130;5.598;2024-03-22T06:21:19;10.40;35.50
23717;DHT22;22094;52.130;5.598;2024-03-22T06:23:50;10.50;1.00
23717;DHT22;22094;52.130;5.598;2024-03-22T06:26:16;10.50;99.90
23717;DHT22;22094;52.130;5.598;2024-03-22T06:28:42;10.40;99.90
23717;DHT22;22094;52.130;5.598;2024-03-22T06:31:07;10.50;99.90
23717;DHT22;22094;52.130;5.598;2024-03-22T06:33:33;10.50;99.90
23717;DHT22;22094;52.130;5.598;2024-03-22T06:35:59;10.50;1.00
23717;DHT22;22094;52.130;5.598;2024-03-22T06:38:25;10.70;1.00
23717;DHT22;22094;52.130;5.598;2024-03-22T06:40:50;10.60;99.90
23717;DHT22;22094;52.130;5.598;2024-03-22T06:43:16;10.60;1.00
23717;DHT22;22094;52.130;5.598;2024-03-22T06:45:41;10.60;1.00
23717;DHT22;22094;52.130;5.598;2024-03-22T06:48:07;10.60;1.00
23717;DHT22;22094;52.130;5.598;2024-03-22T06:50:32;10.70;12.20
23717;DHT22;22094;52.130;5.598;2024-03-22T06:52:58;10.70;1.00
23717;DHT22;22094;52.130;5.598;2024-03-22T06:55:24;10.80;1.00
23717;DHT22;22094;52.130;5.598;2024-03-22T06:57:50;10.80;1.00
23717;DHT22;22094;52.130;5.598;2024-03-22T07:00:16;10.90;1.00
23717;DHT22;22094;52.130;5.598;2024-03-22T07:02:43;10.90;1.00
23717;DHT22;22094;52.130;5.598;2024-03-22T07:05:09;10.90;99.90
23717;DHT22;22094;52.130;5.598;2024-03-22T07:07:35;10.90;99.90
23717;DHT22;22094;52.130;5.598;2024-03-22T07:10:04;11.00;37.00
23717;DHT22;22094;52.130;5.598;2024-03-22T07:12:33;11.10;1.00
23717;DHT22;22094;52.130;5.598;2024-03-22T07:15:02;11.10;1.00
23717;DHT22;22094;52.130;5.598;2024-03-22T07:17:28;11.20;99.90
23717;DHT22;22094;52.130;5.598;2024-03-22T07:19:54;11.30;99.90
23717;DHT22;22094;52.130;5.598;2024-03-22T07:22:20;11.40;1.00
23717;DHT22;22094;52.130;5.598;2024-03-22T07:24:47;11.10;55.60
23717;DHT22;22094;52.130;5.598;2024-03-22T07:27:13;11.50;99.90
23717;DHT22;22094;52.130;5.598;2024-03-22T07:32:06;11.20;99.90
23717;DHT22;22094;52.130;5.598;2024-03-22T07:34:32;11.30;99.90
23717;DHT22;22094;52.130;5.598;2024-03-22T07:36:57;11.30;1.00
23717;DHT22;22094;52.130;5.598;2024-03-22T07:39:23;11.30;1.00
23717;DHT22;22094;52.130;5.598;2024-03-22T07:41:50;11.20;1.00
23717;DHT22;22094;52.130;5.598;2024-03-22T07:44:15;11.20;87.20
23717;DHT22;22094;52.130;5.598;2024-03-22T07:46:45;11.10;99.90
23717;DHT22;22094;52.130;5.598;2024-03-22T07:49:14;11.00;1.00
23717;DHT22;22094;52.130;5.598;2024-03-22T07:51:40;11.00;1.00
23717;DHT22;22094;52.130;5.598;2024-03-22T07:54:05;11.00;99.90
23717;DHT22;22094;52.130;5.598;2024-03-22T07:56:31;11.00;1.00
23717;DHT22;22094;52.130;5.598;2024-03-22T07:58:57;10.90;1.00
23717;DHT22;22094;52.130;5.598;2024-03-22T08:01:23;11.20;1.00
23717;DHT22;22094;52.130;5.598;2024-03-22T08:03:49;10.90;1.00
23717;DHT22;22094;52.130;5.598;2024-03-22T08:06:15;10.90;1.00
23717;DHT22;22094;52.130;5.598;2024-03-22T08:08:40;10.90;1.00
23717;DHT22;22094;52.130;5.598;2024-03-22T08:11:06;11.00;1.00
23717;DHT22;22094;52.130;5.598;2024-03-22T08:13:31;11.00;1.00
23717;DHT22;22094;52.130;5.598;2024-03-22T08:15:57;12.90;1.00
23717;DHT22;22094;52.130;5.598;2024-03-22T08:18:22;11.00;1.00
23717;DHT22;22094;52.130;5.598;2024-03-22T08:20:48;11.30;1.00
23717;DHT22;22094;52.130;5.598;2024-03-22T08:23:13;11.00;1.00
23717;DHT22;22094;52.130;5.598;2024-03-22T08:25:39;11.00;1.00
23717;DHT22;22094;52.130;5.598;2024-03-22T08:30:31;11.10;1.00
23717;DHT22;22094;52.130;5.598;2024-03-22T08:32:56;11.10;99.90
23717;DHT22;22094;52.130;5.598;2024-03-22T08:35:22;11.10;99.90
23717;DHT22;22094;52.130;5.598;2024-03-22T08:37:47;11.10;1.00
23717;DHT22;22094;52.130;5.598;2024-03-22T08:40:13;11.00;99.90
23717;DHT22;22094;52.130;5.598;2024-03-22T08:42:39;11.00;99.90
23717;DHT22;22094;52.130;5.598;2024-03-22T08:45:05;11.00;99.90
23717;DHT22;22094;52.130;5.598;2024-03-22T08:47:31;10.90;99.90
23717;DHT22;22094;52.130;5.598;2024-03-22T08:49:59;11.00;1.00
23717;DHT22;22094;52.130;5.598;2024-03-22T08:52:24;11.30;1.00
23717;DHT22;22094;52.130;5.598;2024-03-22T08:54:51;10.80;99.90
23717;DHT22;22094;52.130;5.598;2024-03-22T08:57:17;11.00;99.90
23717;DHT22;22094;52.130;5.598;2024-03-22T09:02:08;10.80;99.90
23717;DHT22;22094;52.130;5.598;2024-03-22T09:04:34;10.80;99.90
23717;DHT22;22094;52.130;5.598;2024-03-22T09:06:59;9.20;1.00
23717;DHT22;22094;52.130;5.598;2024-03-22T09:09:25;10.90;1.00
23717;DHT22;22094;52.130;5.598;2024-03-22T09:14:16;13.00;90.50
23717;DHT22;22094;52.130;5.598;2024-03-22T09:16:42;10.70;99.90
23717;DHT22;22094;52.130;5.598;2024-03-22T09:19:08;10.70;99.90
23717;DHT22;22094;52.130;5.598;2024-03-22T09:21:33;10.80;99.90
23717;DHT22;22094;52.130;5.598;2024-03-22T09:23:59;10.80;99.90
23717;DHT22;22094;52.130;5.598;2024-03-22T09:26:25;10.70;99.90
23717;DHT22;22094;52.130;5.598;2024-03-22T09:28:51;10.70;1.00
23717;DHT22;22094;52.130;5.598;2024-03-22T09:31:17;10.60;1.00
23717;DHT22;22094;52.130;5.598;2024-03-22T09:33:42;10.70;1.00
23717;DHT22;22094;52.130;5.598;2024-03-22T09:36:08;10.70;1.00
23717;DHT22;22094;52.130;5.598;2024-03-22T09:38:34;10.70;1.00
23717;DHT22;22094;52.130;5.598;2024-03-22T09:41:00;10.80;1.00
23717;DHT22;22094;52.130;5.598;2024-03-22T09:43:27;10.90;1.00
23717;DHT22;22094;52.130;5.598;2024-03-22T09:45:54;10.80;1.00
23717;DHT22;22094;52.130;5.598;2024-03-22T09:48:20;10.90;1.00
23717;DHT22;22094;52.130;5.598;2024-03-22T09:50:47;10.80;1.00
23717;DHT22;22094;52.130;5.598;2024-03-22T09:53:13;10.80;1.00
23717;DHT22;22094;52.130;5.598;2024-03-22T09:55:42;10.80;1.00
23717;DHT22;22094;52.130;5.598;2024-03-22T09:58:10;11.20;1.00
23717;DHT22;22094;52.130;5.598;2024-03-22T10:00:35;10.80;1.00
23717;DHT22;22094;52.130;5.598;2024-03-22T10:03:01;10.80;1.00
23717;DHT22;22094;52.130;5.598;2024-03-22T10:05:29;10.80;1.00
23717;DHT22;22094;52.130;5.598;2024-03-22T10:07:55;10.80;1.00
23717;DHT22;22094;52.130;5.598;2024-03-22T10:10:20;10.90;1.00
23717;DHT22;22094;52.130;5.598;2024-03-22T10:12:47;10.80;1.00
23717;DHT22;22094;52.130;5.598;2024-03-22T10:15:13;10.80;1.00
23717;DHT22;22094;52.130;5.598;2024-03-22T10:17:39;10.80;1.00
23717;DHT22;22094;52.130;5.598;2024-03-22T10:20:06;10.80;1.00
23717;DHT22;22094;52.130;5.598;2024-03-22T10:22:58;10.80;1.00
23717;DHT22;22094;52.130;5.598;2024-03-22T10:25:25;10.80;1.00
23717;DHT22;22094;52.130;5.598;2024-03-22T10:27:54;10.80;1.00
23717;DHT22;22094;52.130;5.598;2024-03-22T10:30:24;10.90;1.00
23717;DHT22;22094;52.130;5.598;2024-03-22T10:32:50;11.00;1.00
23717;DHT22;22094;52.130;5.598;2024-03-22T10:35:16;11.00;1.00
23717;DHT22;22094;52.130;5.598;2024-03-22T10:37:42;10.90;1.00
23717;DHT22;22094;52.130;5.598;2024-03-22T10:40:08;11.10;1.00
23717;DHT22;22094;52.130;5.598;2024-03-22T10:42:38;11.10;1.00
23717;DHT22;22094;52.130;5.598;2024-03-22T10:45:06;11.20;1.00
23717;DHT22;22094;52.130;5.598;2024-03-22T10:47:34;11.10;1.00
23717;DHT22;22094;52.130;5.598;2024-03-22T10:50:07;11.10;1.00
23717;DHT22;22094;52.130;5.598;2024-03-22T10:53:01;11.10;1.00
23717;DHT22;22094;52.130;5.598;2024-03-22T10:55:33;11.10;1.00
23717;DHT22;22094;52.130;5.598;2024-03-22T10:57:59;11.10;1.00
23717;DHT22;22094;52.130;5.598;2024-03-22T11:00:29;11.00;1.00
23717;DHT22;22094;52.130;5.598;2024-03-22T11:02:56;11.00;1.00
23717;DHT22;22094;52.130;5.598;2024-03-22T11:05:22;11.00;1.00
23717;DHT22;22094;52.130;5.598;2024-03-22T11:07:47;11.00;1.00
23717;DHT22;22094;52.130;5.598;2024-03-22T11:10:14;11.00;1.00
23717;DHT22;22094;52.130;5.598;2024-03-22T11:12:40;11.00;1.00
23717;DHT22;22094;52.130;5.598;2024-03-22T11:15:06;11.00;1.00
23717;DHT22;22094;52.130;5.598;2024-03-22T11:17:32;11.00;1.00
23717;DHT22;22094;52.130;5.598;2024-03-22T11:19:58;11.10;1.00
23717;DHT22;22094;52.130;5.598;2024-03-22T11:22:25;11.20;1.00
23717;DHT22;22094;52.130;5.598;2024-03-22T11:24:52;11.30;1.00
23717;DHT22;22094;52.130;5.598;2024-03-22T11:27:17;11.40;1.00
23717;DHT22;22094;52.130;5.598;2024-03-22T11:29:43;11.30;1.00
23717;DHT22;22094;52.130;5.598;2024-03-22T11:32:12;11.40;1.00
23717;DHT22;22094;52.130;5.598;2024-03-22T11:34:38;11.40;1.00
23717;DHT22;22094;52.130;5.598;2024-03-22T11:37:05;11.60;1.00
23717;DHT22;22094;52.130;5.598;2024-03-22T11:39:33;11.50;1.00
23717;DHT22;22094;52.130;5.598;2024-03-22T11:42:01;11.30;1.00
23717;DHT22;22094;52.130;5.598;2024-03-22T11:44:27;11.30;1.00
23717;DHT22;22094;52.130;5.598;2024-03-22T11:46:53;11.30;1.00
23717;DHT22;22094;52.130;5.598;2024-03-22T11:49:19;11.20;1.00
23717;DHT22;22094;52.130;5.598;2024-03-22T11:51:45;11.30;1.00
23717;DHT22;22094;52.130;5.598;2024-03-22T11:54:11;11.40;1.00
23717;DHT22;22094;52.130;5.598;2024-03-22T11:56:36;11.40;1.00
23717;DHT22;22094;52.130;5.598;2024-03-22T11:59:02;11.40;1.00
23717;DHT22;22094;52.130;5.598;2024-03-22T12:01:31;11.40;1.00
23717;DHT22;22094;52.130;5.598;2024-03-22T12:03:57;11.50;1.00
23717;DHT22;22094;52.130;5.598;2024-03-22T12:06:24;11.50;1.00
23717;DHT22;22094;52.130;5.598;2024-03-22T12:08:49;11.50;1.00
23717;DHT22;22094;52.130;5.598;2024-03-22T12:11:16;11.40;1.00
23717;DHT22;22094;52.130;5.598;2024-03-22T12:13:41;12.80;1.00
23717;DHT22;22094;52.130;5.598;2024-03-22T12:16:07;11.30;1.00
23717;DHT22;22094;52.130;5.598;2024-03-22T12:18:33;11.30;1.00
23717;DHT22;22094;52.130;5.598;2024-03-22T12:20:59;11.30;1.00
23717;DHT22;22094;52.130;5.598;2024-03-22T12:23:25;11.20;1.00
23717;DHT22;22094;52.130;5.598;2024-03-22T12:25:51;11.20;1.00
23717;DHT22;22094;52.130;5.598;2024-03-22T12:28:17;11.20;1.00
23717;DHT22;22094;52.130;5.598;2024-03-22T12:30:43;11.20;1.00
23717;DHT22;22094;52.130;5.598;2024-03-22T12:33:09;11.20;1.00
23717;DHT22;22094;52.130;5.598;2024-03-22T12:35:39;11.20;1.00
23717;DHT22;22094;52.130;5.598;2024-03-22T12:38:05;11.20;1.00
23717;DHT22;22094;52.130;5.598;2024-03-22T12:40:30;11.30;1.00
23717;DHT22;22094;52.130;5.598;2024-03-22T12:42:58;11.30;1.00
23717;DHT22;22094;52.130;5.598;2024-03-22T12:45:24;11.20;1.00
23717;DHT22;22094;52.130;5.598;2024-03-22T12:47:49;11.40;1.00
23717;DHT22;22094;52.130;5.598;2024-03-22T12:50:15;11.50;1.00
23717;DHT22;22094;52.130;5.598;2024-03-22T12:52:40;11.50;1.00
23717;DHT22;22094;52.130;5.598;2024-03-22T12:55:06;11.50;1.00
23717;DHT22;22094;52.130;5.598;2024-03-22T12:57:32;11.50;1.00
23717;DHT22;22094;52.130;5.598;2024-03-22T12:59:58;11.30;1.00
23717;DHT22;22094;52.130;5.598;2024-03-22T13:02:24;11.30;1.00
23717;DHT22;22094;52.130;5.598;2024-03-22T13:04:52;11.10;1.00
23717;DHT22;22094;52.130;5.598;2024-03-22T13:07:19;10.90;1.00
23717;DHT22;22094;52.130;5.598;2024-03-22T13:09:44;10.90;1.00
23717;DHT22;22094;52.130;5.598;2024-03-22T13:12:10;11.10;1.00
23717;DHT22;22094;52.130;5.598;2024-03-22T13:14:36;11.20;1.00
23717;DHT22;22094;52.130;5.598;2024-03-22T13:17:01;11.20;1.00
23717;DHT22;22094;52.130;5.598;2024-03-22T13:19:27;11.10;1.00
23717;DHT22;22094;52.130;5.598;2024-03-22T13:24:18;11.20;1.00
23717;DHT22;22094;52.130;5.598;2024-03-22T13:26:44;11.20;1.00
23717;DHT22;22094;52.130;5.598;2024-03-22T13:29:10;11.10;1.00
23717;DHT22;22094;52.130;5.598;2024-03-22T13:31:37;11.10;1.00
23717;DHT22;22094;52.130;5.598;2024-03-22T13:34:03;10.30;1.00
23717;DHT22;22094;52.130;5.598;2024-03-22T13:36:29;10.80;1.00
23717;DHT22;22094;52.130;5.598;2024-03-22T13:38:58;10.70;1.00
23717;DHT22;22094;52.130;5.598;2024-03-22T13:41:23;11.00;1.00
23717;DHT22;22094;52.130;5.598;2024-03-22T13:43:49;11.00;1.00
23717;DHT22;22094;52.130;5.598;2024-03-22T13:46:15;10.70;1.00
23717;DHT22;22094;52.130;5.598;2024-03-22T13:48:42;10.70;1.00
23717;DHT22;22094;52.130;5.598;2024-03-22T13:51:08;10.80;1.00
23717;DHT22;22094;52.130;5.598;2024-03-22T13:53:34;10.90;1.00
23717;DHT22;22094;52.130;5.598;2024-03-22T13:56:00;10.90;1.00
23717;DHT22;22094;52.130;5.598;2024-03-22T14:00:53;10.80;1.00
23717;DHT22;22094;52.130;5.598;2024-03-22T14:03:18;10.80;1.00
23717;DHT22;22094;52.130;5.598;2024-03-22T14:05:44;10.80;1.00
23717;DHT22;22094;52.130;5.598;2024-03-22T14:08:10;11.10;1.00
23717;DHT22;22094;52.130;5.598;2024-03-22T14:10:35;11.00;1.00
23717;DHT22;22094;52.130;5.598;2024-03-22T14:13:01;11.00;1.00
23717;DHT22;22094;52.130;5.598;2024-03-22T14:15:27;11.00;1.00
23717;DHT22;22094;52.130;5.598;2024-03-22T14:17:57;11.00;1.00
23717;DHT22;22094;52.130;5.598;2024-03-22T14:20:23;10.90;1.00
23717;DHT22;22094;52.130;5.598;2024-03-22T14:22:48;10.80;1.00
23717;DHT22;22094;52.130;5.598;2024-03-22T14:25:14;10.90;1.00
23717;DHT22;22094;52.130;5.598;2024-03-22T14:27:40;10.90;1.00
23717;DHT22;22094;52.130;5.598;2024-03-22T14:30:10;10.80;1.00
23717;DHT22;22094;52.130;5.598;2024-03-22T14:32:38;10.80;1.00
23717;DHT22;22094;52.130;5.598;2024-03-22T14:35:04;10.80;1.00
23717;DHT22;22094;52.130;5.598;2024-03-22T14:37:29;10.80;1.00
23717;DHT22;22094;52.130;5.598;2024-03-22T14:39:55;10.80;1.00
23717;DHT22;22094;52.130;5.598;2024-03-22T14:42:21;11.00;1.00
23717;DHT22;22094;52.130;5.598;2024-03-22T14:44:46;11.10;1.00
23717;DHT22;22094;52.130;5.598;2024-03-22T14:47:12;11.00;1.00
23717;DHT22;22094;52.130;5.598;2024-03-22T14:49:37;11.10;1.00
23717;DHT22;22094;52.130;5.598;2024-03-22T14:52:03;11.40;1.00
23717;DHT22;22094;52.130;5.598;2024-03-22T14:54:29;11.10;1.00
23717;DHT22;22094;52.130;5.598;2024-03-22T14:56:55;11.20;1.00
23717;DHT22;22094;52.130;5.598;2024-03-22T14:59:20;11.00;1.00
23717;DHT22;22094;52.130;5.598;2024-03-22T15:01:46;11.00;1.00
23717;DHT22;22094;52.130;5.598;2024-03-22T15:04:12;11.00;1.00
23717;DHT22;22094;52.130;5.598;2024-03-22T15:06:38;11.00;1.00
23717;DHT22;22094;52.130;5.598;2024-03-22T15:09:04;11.00;1.00
23717;DHT22;22094;52.130;5.598;2024-03-22T15:14:01;11.00;1.00
23717;DHT22;22094;52.130;5.598;2024-03-22T15:16:28;11.00;1.00
23717;DHT22;22094;52.130;5.598;2024-03-22T15:18:53;11.00;1.00
23717;DHT22;22094;52.130;5.598;2024-03-22T15:21:19;10.80;1.00
23717;DHT22;22094;52.130;5.598;2024-03-22T15:23:46;10.80;92.90
23717;DHT22;22094;52.130;5.598;2024-03-22T15:26:14;10.90;99.90
23717;DHT22;22094;52.130;5.598;2024-03-22T15:28:40;10.60;99.90
23717;DHT22;22094;52.130;5.598;2024-03-22T15:31:06;10.70;1.00
23717;DHT22;22094;52.130;5.598;2024-03-22T15:33:32;10.60;99.90
23717;DHT22;22094;52.130;5.598;2024-03-22T15:35:58;10.60;1.00
23717;DHT22;22094;52.130;5.598;2024-03-22T15:38:23;10.60;99.90
23717;DHT22;22094;52.130;5.598;2024-03-22T15:40:50;10.60;1.00
23717;DHT22;22094;52.130;5.598;2024-03-22T15:43:17;10.50;1.00
23717;DHT22;22094;52.130;5.598;2024-03-22T15:45:42;10.50;99.90
23717;DHT22;22094;52.130;5.598;2024-03-22T15:48:08;10.50;99.90
23717;DHT22;22094;52.130;5.598;2024-03-22T15:50:35;10.40;99.90
23717;DHT22;22094;52.130;5.598;2024-03-22T15:53:00;10.40;1.00